Terminal Aerodrome Forecast
Issued by NWS Buffalo, NY

Home | Current Version | Previous Version | Text Only | Print | Product List | Glossary On
Versions: 1 2 3 4 5 6 7 8 9 10 11 12 13 14 15 16 17 18 19 20 21 22 23 24 25
000
FTUS41 KBUF 250500
TAFROC
TAF
KROC 250540Z 2506/2606 24006KT 6SM BR BKN045
     FM251200 22008KT P6SM BKN040
     FM251600 23013G22KT P6SM SCT040 BKN250
     FM252000 25018G32KT P6SM VCSH SCT035 BKN050
     FM252300 26015G25KT P6SM SCT040 BKN200
     FM260100 27014KT P6SM BKN040=

USA.gov is the U.S. government's official web portal to all federal, state and local government web resources and services.